sensor_id;sensor_type;location;lat;lon;timestamp;pressure;altitude;pressure_sealevel;temperature;humidity
48364;BME280;34170;54.364;18.582;2023-06-22T00:00:26;100344.03;;;21.46;97.88
48364;BME280;34170;54.364;18.582;2023-06-22T00:03:15;100356.22;;;21.43;97.69
48364;BME280;34170;54.364;18.582;2023-06-22T00:05:43;100358.34;;;21.35;98.31
48364;BME280;34170;54.364;18.582;2023-06-22T00:08:10;100357.75;;;21.26;98.94
48364;BME280;34170;54.364;18.582;2023-06-22T00:10:38;100356.50;;;21.22;98.88
48364;BME280;34170;54.364;18.582;2023-06-22T00:13:08;100356.69;;;21.27;98.96
48364;BME280;34170;54.364;18.582;2023-06-22T00:15:38;100354.41;;;21.10;99.98
48364;BME280;34170;54.364;18.582;2023-06-22T00:18:07;100357.53;;;21.21;99.07
48364;BME280;34170;54.364;18.582;2023-06-22T00:20:35;100353.56;;;21.17;99.15
48364;BME280;34170;54.364;18.582;2023-06-22T00:23:06;100355.47;;;21.09;100.00
48364;BME280;34170;54.364;18.582;2023-06-22T00:25:38;100356.31;;;21.03;99.91
48364;BME280;34170;54.364;18.582;2023-06-22T00:28:07;100361.56;;;21.05;99.93
48364;BME280;34170;54.364;18.582;2023-06-22T00:30:36;100361.13;;;21.01;100.00
48364;BME280;34170;54.364;18.582;2023-06-22T00:33:03;100371.66;;;21.04;100.00
48364;BME280;34170;54.364;18.582;2023-06-22T00:35:33;100366.81;;;21.06;99.86
48364;BME280;34170;54.364;18.582;2023-06-22T00:38:01;100363.69;;;20.83;100.00
48364;BME280;34170;54.364;18.582;2023-06-22T00:40:31;100365.59;;;20.75;100.00
48364;BME280;34170;54.364;18.582;2023-06-22T00:42:59;100352.97;;;20.74;100.00
48364;BME280;34170;54.364;18.582;2023-06-22T00:45:27;100366.44;;;20.63;100.00
48364;BME280;34170;54.364;18.582;2023-06-22T00:47:57;100365.75;;;20.54;100.00
48364;BME280;34170;54.364;18.582;2023-06-22T00:50:27;100360.91;;;20.56;100.00
48364;BME280;34170;54.364;18.582;2023-06-22T00:52:59;100366.16;;;20.51;100.00
48364;BME280;34170;54.364;18.582;2023-06-22T00:55:29;100365.53;;;20.49;100.00
48364;BME280;34170;54.364;18.582;2023-06-22T00:57:56;100367.63;;;20.47;100.00
48364;BME280;34170;54.364;18.582;2023-06-22T01:00:24;100377.47;;;20.28;100.00
48364;BME280;34170;54.364;18.582;2023-06-22T01:02:53;100371.81;;;20.29;100.00
48364;BME280;34170;54.364;18.582;2023-06-22T01:05:22;100377.47;;;20.28;100.00
48364;BME280;34170;54.364;18.582;2023-06-22T01:11:47;100369.06;;;20.16;100.00
48364;BME280;34170;54.364;18.582;2023-06-22T01:16:28;100368.78;;;19.97;100.00
48364;BME280;34170;54.364;18.582;2023-06-22T01:18:57;100367.50;;;19.93;100.00
48364;BME280;34170;54.364;18.582;2023-06-22T01:21:30;100362.88;;;19.94;100.00
48364;BME280;34170;54.364;18.582;2023-06-22T01:29:57;100368.00;;;19.69;100.00
48364;BME280;34170;54.364;18.582;2023-06-22T01:32:32;100366.03;;;19.84;100.00
48364;BME280;34170;54.364;18.582;2023-06-22T01:35:03;100364.31;;;19.83;100.00
48364;BME280;34170;54.364;18.582;2023-06-22T01:37:35;100380.09;;;19.88;100.00
48364;BME280;34170;54.364;18.582;2023-06-22T01:40:05;100374.88;;;19.93;100.00
48364;BME280;34170;54.364;18.582;2023-06-22T01:42:34;100355.13;;;19.91;100.00
48364;BME280;34170;54.364;18.582;2023-06-22T01:45:02;100367.50;;;19.93;100.00
48364;BME280;34170;54.364;18.582;2023-06-22T01:47:32;100358.19;;;19.74;100.00
48364;BME280;34170;54.364;18.582;2023-06-22T01:50:00;100364.97;;;19.85;100.00
48364;BME280;34170;54.364;18.582;2023-06-22T01:52:29;100362.16;;;19.72;100.00
48364;BME280;34170;54.364;18.582;2023-06-22T01:54:56;100366.78;;;19.71;100.00
48364;BME280;34170;54.364;18.582;2023-06-22T01:57:26;100371.44;;;19.77;100.00
48364;BME280;34170;54.364;18.582;2023-06-22T02:00:00;100376.72;;;19.86;100.00
48364;BME280;34170;54.364;18.582;2023-06-22T02:03:01;100381.75;;;19.82;100.00
48364;BME280;34170;54.364;18.582;2023-06-22T02:05:38;100382.09;;;19.72;100.00
48364;BME280;34170;54.364;18.582;2023-06-22T02:08:17;100375.22;;;19.76;100.00
48364;BME280;34170;54.364;18.582;2023-06-22T02:10:48;100380.03;;;19.74;100.00
48364;BME280;34170;54.364;18.582;2023-06-22T02:13:17;100368.75;;;19.42;100.00
48364;BME280;34170;54.364;18.582;2023-06-22T02:15:45;100376.88;;;19.36;100.00
48364;BME280;34170;54.364;18.582;2023-06-22T02:18:14;100376.38;;;19.26;100.00
48364;BME280;34170;54.364;18.582;2023-06-22T02:20:42;100381.59;;;19.20;100.00
48364;BME280;34170;54.364;18.582;2023-06-22T02:23:10;100375.22;;;19.41;100.00
48364;BME280;34170;54.364;18.582;2023-06-22T02:25:38;100393.59;;;19.61;100.00
48364;BME280;34170;54.364;18.582;2023-06-22T02:28:06;100392.72;;;19.54;100.00
48364;BME280;34170;54.364;18.582;2023-06-22T02:30:33;100410.69;;;19.41;100.00
48364;BME280;34170;54.364;18.582;2023-06-22T02:33:01;100410.19;;;19.66;100.00
48364;BME280;34170;54.364;18.582;2023-06-22T02:35:29;100408.38;;;19.73;100.00
48364;BME280;34170;54.364;18.582;2023-06-22T02:37:59;100409.25;;;19.80;100.00
48364;BME280;34170;54.364;18.582;2023-06-22T02:40:29;100411.34;;;19.85;100.00
48364;BME280;34170;54.364;18.582;2023-06-22T02:42:58;100412.72;;;19.68;100.00
48364;BME280;34170;54.364;18.582;2023-06-22T02:45:30;100410.44;;;19.71;100.00
48364;BME280;34170;54.364;18.582;2023-06-22T02:47:58;100414.81;;;19.72;100.00
48364;BME280;34170;54.364;18.582;2023-06-22T02:50:26;100422.84;;;19.74;100.00
48364;BME280;34170;54.364;18.582;2023-06-22T02:52:54;100422.69;;;19.89;100.00
48364;BME280;34170;54.364;18.582;2023-06-22T02:55:22;100435.56;;;19.67;100.00
48364;BME280;34170;54.364;18.582;2023-06-22T02:57:55;100432.28;;;19.78;100.00
48364;BME280;34170;54.364;18.582;2023-06-22T03:00:25;100430.88;;;19.82;100.00
48364;BME280;34170;54.364;18.582;2023-06-22T03:02:59;100436.41;;;19.67;100.00
48364;BME280;34170;54.364;18.582;2023-06-22T03:05:27;100429.88;;;19.96;100.00
48364;BME280;34170;54.364;18.582;2023-06-22T03:07:57;100425.94;;;19.71;100.00
48364;BME280;34170;54.364;18.582;2023-06-22T03:10:25;100416.97;;;20.25;100.00
48364;BME280;34170;54.364;18.582;2023-06-22T03:12:54;100426.06;;;19.84;100.00
48364;BME280;34170;54.364;18.582;2023-06-22T03:15:22;100438.19;;;20.23;100.00
48364;BME280;34170;54.364;18.582;2023-06-22T03:17:51;100443.03;;;20.34;100.00
48364;BME280;34170;54.364;18.582;2023-06-22T03:20:19;100446.22;;;20.45;100.00
48364;BME280;34170;54.364;18.582;2023-06-22T03:22:46;100455.75;;;20.75;100.00
48364;BME280;34170;54.364;18.582;2023-06-22T03:25:16;100452.00;;;21.10;100.00
48364;BME280;34170;54.364;18.582;2023-06-22T03:27:46;100452.00;;;21.17;100.00
48364;BME280;34170;54.364;18.582;2023-06-22T03:30:15;100468.81;;;22.25;98.15
48364;BME280;34170;54.364;18.582;2023-06-22T03:32:43;100475.91;;;22.78;92.05
48364;BME280;34170;54.364;18.582;2023-06-22T03:35:11;100472.16;;;23.73;86.94
48364;BME280;34170;54.364;18.582;2023-06-22T03:37:41;100479.50;;;24.16;82.98
48364;BME280;34170;54.364;18.582;2023-06-22T03:40:09;100482.94;;;24.91;76.24
48364;BME280;34170;54.364;18.582;2023-06-22T03:42:37;100491.00;;;26.51;69.36
48364;BME280;34170;54.364;18.582;2023-06-22T03:45:05;100481.13;;;24.97;73.86
48364;BME280;34170;54.364;18.582;2023-06-22T03:47:33;100494.31;;;26.36;67.86
48364;BME280;34170;54.364;18.582;2023-06-22T03:50:01;100493.47;;;27.78;58.54
48364;BME280;34170;54.364;18.582;2023-06-22T03:52:33;100496.88;;;28.24;55.15
48364;BME280;34170;54.364;18.582;2023-06-22T03:55:00;100505.06;;;28.63;52.85
48364;BME280;34170;54.364;18.582;2023-06-22T03:57:28;100505.97;;;29.66;50.65
48364;BME280;34170;54.364;18.582;2023-06-22T03:59:56;100502.38;;;29.65;48.44
48364;BME280;34170;54.364;18.582;2023-06-22T04:02:25;100502.97;;;29.30;49.78
48364;BME280;34170;54.364;18.582;2023-06-22T04:04:53;100506.81;;;29.29;50.88
48364;BME280;34170;54.364;18.582;2023-06-22T04:07:21;100515.38;;;29.27;48.80
48364;BME280;34170;54.364;18.582;2023-06-22T04:09:49;100523.88;;;28.17;53.46
48364;BME280;34170;54.364;18.582;2023-06-22T04:12:17;100510.44;;;25.33;65.03
48364;BME280;34170;54.364;18.582;2023-06-22T04:14:44;100527.34;;;25.72;65.58
48364;BME280;34170;54.364;18.582;2023-06-22T04:17:12;100524.31;;;24.96;70.22
48364;BME280;34170;54.364;18.582;2023-06-22T04:19:41;100536.91;;;25.93;65.77
48364;BME280;34170;54.364;18.582;2023-06-22T04:22:09;100537.81;;;27.88;55.80
48364;BME280;34170;54.364;18.582;2023-06-22T04:24:37;100533.72;;;30.92;46.89
48364;BME280;34170;54.364;18.582;2023-06-22T04:27:05;100532.38;;;32.63;40.18
48364;BME280;34170;54.364;18.582;2023-06-22T04:29:33;100529.22;;;32.25;41.16
48364;BME280;34170;54.364;18.582;2023-06-22T04:32:00;100525.97;;;31.46;41.98
48364;BME280;34170;54.364;18.582;2023-06-22T04:34:32;100528.50;;;30.28;44.84
48364;BME280;34170;54.364;18.582;2023-06-22T04:37:00;100527.75;;;29.90;46.32
48364;BME280;34170;54.364;18.582;2023-06-22T04:39:28;100531.09;;;27.16;55.48
48364;BME280;34170;54.364;18.582;2023-06-22T04:41:56;100537.97;;;26.28;58.95
48364;BME280;34170;54.364;18.582;2023-06-22T04:44:27;100527.44;;;25.89;61.61
48364;BME280;34170;54.364;18.582;2023-06-22T04:46:57;100520.50;;;25.27;66.51
48364;BME280;34170;54.364;18.582;2023-06-22T04:49:30;100539.22;;;25.19;66.68
48364;BME280;34170;54.364;18.582;2023-06-22T04:52:04;100531.78;;;25.19;66.12
48364;BME280;34170;54.364;18.582;2023-06-22T04:54:32;100532.59;;;24.47;70.81
48364;BME280;34170;54.364;18.582;2023-06-22T04:57:03;100527.13;;;24.29;70.97
48364;BME280;34170;54.364;18.582;2023-06-22T04:59:32;100532.56;;;23.73;74.20
48364;BME280;34170;54.364;18.582;2023-06-22T05:02:01;100531.69;;;23.54;75.11
48364;BME280;34170;54.364;18.582;2023-06-22T05:04:29;100525.47;;;23.40;76.35
48364;BME280;34170;54.364;18.582;2023-06-22T05:06:59;100532.56;;;23.23;78.18
48364;BME280;34170;54.364;18.582;2023-06-22T05:09:28;100532.06;;;23.33;77.61
48364;BME280;34170;54.364;18.582;2023-06-22T05:11:56;100529.28;;;23.65;76.78
48364;BME280;34170;54.364;18.582;2023-06-22T05:14:24;100517.97;;;23.73;74.53
48364;BME280;34170;54.364;18.582;2023-06-22T05:16:52;100512.31;;;23.93;73.25
48364;BME280;34170;54.364;18.582;2023-06-22T05:19:19;100519.34;;;24.26;72.39
48364;BME280;34170;54.364;18.582;2023-06-22T05:21:47;100541.00;;;24.15;71.40
48364;BME280;34170;54.364;18.582;2023-06-22T05:24:15;100533.81;;;24.14;72.12
48364;BME280;34170;54.364;18.582;2023-06-22T05:26:43;100532.28;;;24.74;67.99
48364;BME280;34170;54.364;18.582;2023-06-22T05:29:10;100529.91;;;24.89;66.96
48364;BME280;34170;54.364;18.582;2023-06-22T05:31:38;100533.53;;;25.56;62.66
48364;BME280;34170;54.364;18.582;2023-06-22T05:34:07;100536.75;;;26.23;60.47
48364;BME280;34170;54.364;18.582;2023-06-22T05:36:35;100531.28;;;25.76;60.26
48364;BME280;34170;54.364;18.582;2023-06-22T05:39:11;100540.94;;;26.26;57.09
48364;BME280;34170;54.364;18.582;2023-06-22T05:41:41;100547.66;;;26.99;54.76
48364;BME280;34170;54.364;18.582;2023-06-22T05:44:10;100545.09;;;28.56;48.23
48364;BME280;34170;54.364;18.582;2023-06-22T05:46:43;100550.44;;;29.76;44.86
48364;BME280;34170;54.364;18.582;2023-06-22T05:49:12;100552.38;;;31.38;39.81
48364;BME280;34170;54.364;18.582;2023-06-22T05:51:41;100553.47;;;31.88;38.25
48364;BME280;34170;54.364;18.582;2023-06-22T05:54:09;100555.78;;;33.41;35.32
48364;BME280;34170;54.364;18.582;2023-06-22T05:56:37;100556.59;;;32.57;35.72
48364;BME280;34170;54.364;18.582;2023-06-22T05:59:05;100554.56;;;34.11;34.22
48364;BME280;34170;54.364;18.582;2023-06-22T06:01:33;100569.66;;;36.00;30.68
48364;BME280;34170;54.364;18.582;2023-06-22T06:04:03;100562.69;;;34.99;31.39
48364;BME280;34170;54.364;18.582;2023-06-22T06:06:32;100574.53;;;36.08;30.14
48364;BME280;34170;54.364;18.582;2023-06-22T06:08:59;100574.41;;;36.82;28.47
48364;BME280;34170;54.364;18.582;2023-06-22T06:11:27;100587.94;;;38.82;26.19
48364;BME280;34170;54.364;18.582;2023-06-22T06:13:55;100591.22;;;41.63;23.01
48364;BME280;34170;54.364;18.582;2023-06-22T06:16:23;100591.34;;;42.12;21.32
48364;BME280;34170;54.364;18.582;2023-06-22T06:18:50;100595.63;;;40.97;21.56
48364;BME280;34170;54.364;18.582;2023-06-22T06:21:18;100582.59;;;41.47;21.61
48364;BME280;34170;54.364;18.582;2023-06-22T06:23:46;100586.41;;;42.09;21.28
48364;BME280;34170;54.364;18.582;2023-06-22T06:26:14;100588.72;;;40.65;22.07
48364;BME280;34170;54.364;18.582;2023-06-22T06:28:43;100595.56;;;40.55;22.37
48364;BME280;34170;54.364;18.582;2023-06-22T06:31:11;100581.72;;;41.13;22.07
48364;BME280;34170;54.364;18.582;2023-06-22T06:33:39;100582.44;;;36.06;27.27
48364;BME280;34170;54.364;18.582;2023-06-22T06:36:07;100583.84;;;39.50;23.35
48364;BME280;34170;54.364;18.582;2023-06-22T06:38:36;100588.56;;;41.66;21.02
48364;BME280;34170;54.364;18.582;2023-06-22T06:41:04;100586.66;;;43.63;19.24
48364;BME280;34170;54.364;18.582;2023-06-22T06:43:31;100588.53;;;43.42;18.17
48364;BME280;34170;54.364;18.582;2023-06-22T06:45:59;100597.06;;;46.60;16.67
48364;BME280;34170;54.364;18.582;2023-06-22T06:48:27;100585.78;;;45.48;16.87
48364;BME280;34170;54.364;18.582;2023-06-22T06:50:55;100589.44;;;46.14;16.52
48364;BME280;34170;54.364;18.582;2023-06-22T06:53:22;100594.75;;;45.30;16.47
48364;BME280;34170;54.364;18.582;2023-06-22T06:55:50;100597.16;;;44.38;17.11
48364;BME280;34170;54.364;18.582;2023-06-22T06:58:18;100600.16;;;44.29;17.68
48364;BME280;34170;54.364;18.582;2023-06-22T07:00:46;100597.28;;;43.09;18.04
48364;BME280;34170;54.364;18.582;2023-06-22T07:03:13;100609.88;;;44.80;16.75
48364;BME280;34170;54.364;18.582;2023-06-22T07:05:41;100607.94;;;45.81;15.63
48364;BME280;34170;54.364;18.582;2023-06-22T07:08:09;100602.47;;;44.75;16.92
48364;BME280;34170;54.364;18.582;2023-06-22T07:10:37;100608.28;;;43.27;17.88
48364;BME280;34170;54.364;18.582;2023-06-22T07:13:04;100609.41;;;44.26;17.46
48364;BME280;34170;54.364;18.582;2023-06-22T07:15:32;100614.13;;;44.89;16.24
48364;BME280;34170;54.364;18.582;2023-06-22T07:18:00;100599.88;;;45.64;15.58
48364;BME280;34170;54.364;18.582;2023-06-22T07:20:28;100602.03;;;46.67;14.81
48364;BME280;34170;54.364;18.582;2023-06-22T07:22:55;100600.84;;;45.95;15.96
48364;BME280;34170;54.364;18.582;2023-06-22T07:25:23;100608.34;;;45.41;15.60
48364;BME280;34170;54.364;18.582;2023-06-22T07:30:30;100603.22;;;46.39;14.43
48364;BME280;34170;54.364;18.582;2023-06-22T07:33:00;100608.63;;;45.75;15.56
48364;BME280;34170;54.364;18.582;2023-06-22T07:35:32;100615.50;;;44.44;16.47
48364;BME280;34170;54.364;18.582;2023-06-22T07:38:00;100610.88;;;44.36;15.76
48364;BME280;34170;54.364;18.582;2023-06-22T07:40:32;100602.47;;;43.64;16.84
48364;BME280;34170;54.364;18.582;2023-06-22T07:43:01;100613.66;;;43.72;16.47
48364;BME280;34170;54.364;18.582;2023-06-22T07:45:29;100604.88;;;42.19;18.17
48364;BME280;34170;54.364;18.582;2023-06-22T07:47:57;100610.47;;;39.52;20.77
48364;BME280;34170;54.364;18.582;2023-06-22T07:50:25;100610.47;;;39.52;20.77
48364;BME280;34170;54.364;18.582;2023-06-22T07:52:53;100609.28;;;37.27;23.47
48364;BME280;34170;54.364;18.582;2023-06-22T07:55:21;100604.09;;;36.83;24.01
48364;BME280;34170;54.364;18.582;2023-06-22T07:57:49;100596.63;;;36.65;24.00
48364;BME280;34170;54.364;18.582;2023-06-22T08:00:17;100604.06;;;36.00;25.11
48364;BME280;34170;54.364;18.582;2023-06-22T08:02:45;100608.50;;;35.17;26.30
48364;BME280;34170;54.364;18.582;2023-06-22T08:05:15;100624.16;;;35.88;25.02
48364;BME280;34170;54.364;18.582;2023-06-22T08:07:45;100612.56;;;34.43;26.58
48364;BME280;34170;54.364;18.582;2023-06-22T08:10:15;100619.31;;;36.08;25.03
48364;BME280;34170;54.364;18.582;2023-06-22T08:12:43;100622.78;;;36.33;24.79
48364;BME280;34170;54.364;18.582;2023-06-22T08:15:11;100609.03;;;36.03;25.08
48364;BME280;34170;54.364;18.582;2023-06-22T08:17:39;100604.00;;;35.21;26.28
48364;BME280;34170;54.364;18.582;2023-06-22T08:20:08;100612.41;;;34.53;27.01
48364;BME280;34170;54.364;18.582;2023-06-22T08:22:44;100601.59;;;31.68;30.43
48364;BME280;34170;54.364;18.582;2023-06-22T08:25:12;100621.06;;;33.35;27.98
48364;BME280;34170;54.364;18.582;2023-06-22T08:27:40;100615.22;;;34.78;26.61
48364;BME280;34170;54.364;18.582;2023-06-22T08:30:12;100621.28;;;35.23;26.24
48364;BME280;34170;54.364;18.582;2023-06-22T08:32:39;100625.03;;;35.70;24.32
48364;BME280;34170;54.364;18.582;2023-06-22T08:35:08;100608.03;;;34.71;26.41
48364;BME280;34170;54.364;18.582;2023-06-22T08:37:36;100626.78;;;35.99;25.21
48364;BME280;34170;54.364;18.582;2023-06-22T08:40:06;100614.41;;;37.70;23.20
48364;BME280;34170;54.364;18.582;2023-06-22T08:42:36;100612.97;;;38.52;21.76
48364;BME280;34170;54.364;18.582;2023-06-22T08:45:06;100621.16;;;38.80;21.97
48364;BME280;34170;54.364;18.582;2023-06-22T08:47:33;100625.53;;;39.21;20.32
48364;BME280;34170;54.364;18.582;2023-06-22T08:50:01;100618.56;;;39.36;21.50
48364;BME280;34170;54.364;18.582;2023-06-22T08:52:32;100619.84;;;38.95;20.82
48364;BME280;34170;54.364;18.582;2023-06-22T08:55:00;100627.00;;;39.62;20.09
48364;BME280;34170;54.364;18.582;2023-06-22T08:57:28;100629.03;;;40.86;18.93
48364;BME280;34170;54.364;18.582;2023-06-22T08:59:56;100628.56;;;41.26;19.09
48364;BME280;34170;54.364;18.582;2023-06-22T09:02:27;100623.53;;;41.86;18.36
48364;BME280;34170;54.364;18.582;2023-06-22T09:05:04;100623.44;;;40.09;19.65
48364;BME280;34170;54.364;18.582;2023-06-22T09:07:32;100617.63;;;40.83;19.37
48364;BME280;34170;54.364;18.582;2023-06-22T09:10:03;100618.19;;;40.97;19.20
48364;BME280;34170;54.364;18.582;2023-06-22T09:12:34;100601.47;;;40.32;19.30
48364;BME280;34170;54.364;18.582;2023-06-22T09:15:04;100614.94;;;40.86;19.44
48364;BME280;34170;54.364;18.582;2023-06-22T09:17:39;100607.50;;;39.49;20.13
48364;BME280;34170;54.364;18.582;2023-06-22T09:20:08;100618.03;;;40.43;19.40
48364;BME280;34170;54.364;18.582;2023-06-22T09:22:38;100608.06;;;41.38;18.77
48364;BME280;34170;54.364;18.582;2023-06-22T09:25:06;100594.25;;;38.97;20.61
48364;BME280;34170;54.364;18.582;2023-06-22T09:27:34;100604.34;;;39.59;19.35
48364;BME280;34170;54.364;18.582;2023-06-22T09:30:03;100618.47;;;40.53;19.37
48364;BME280;34170;54.364;18.582;2023-06-22T09:32:31;100619.41;;;39.54;19.50
48364;BME280;34170;54.364;18.582;2023-06-22T09:35:03;100599.50;;;38.72;20.67
48364;BME280;34170;54.364;18.582;2023-06-22T09:37:32;100606.34;;;39.06;21.58
48364;BME280;34170;54.364;18.582;2023-06-22T09:40:01;100606.53;;;38.52;20.82
48364;BME280;34170;54.364;18.582;2023-06-22T09:42:29;100604.69;;;39.31;21.03
48364;BME280;34170;54.364;18.582;2023-06-22T09:44:57;100600.69;;;38.80;21.06
48364;BME280;34170;54.364;18.582;2023-06-22T09:47:25;100589.41;;;38.62;20.53
48364;BME280;34170;54.364;18.582;2023-06-22T09:49:52;100591.00;;;34.92;25.30
48364;BME280;34170;54.364;18.582;2023-06-22T09:52:22;100595.38;;;36.16;24.55
48364;BME280;34170;54.364;18.582;2023-06-22T09:55:00;100600.59;;;36.78;23.37
48364;BME280;34170;54.364;18.582;2023-06-22T09:57:28;100602.69;;;38.39;20.74
48364;BME280;34170;54.364;18.582;2023-06-22T09:59:56;100592.84;;;36.97;21.75
48364;BME280;34170;54.364;18.582;2023-06-22T10:02:23;100604.72;;;36.80;22.53
48364;BME280;34170;54.364;18.582;2023-06-22T10:04:51;100584.31;;;36.38;23.05
48364;BME280;34170;54.364;18.582;2023-06-22T10:07:20;100592.88;;;34.97;24.31
48364;BME280;34170;54.364;18.582;2023-06-22T10:09:47;100585.69;;;33.70;26.40
48364;BME280;34170;54.364;18.582;2023-06-22T10:12:15;100594.97;;;33.55;28.40
48364;BME280;34170;54.364;18.582;2023-06-22T10:14:43;100589.06;;;34.68;27.24
48364;BME280;34170;54.364;18.582;2023-06-22T10:17:11;100585.78;;;35.75;25.90
48364;BME280;34170;54.364;18.582;2023-06-22T10:19:39;100595.16;;;35.84;24.20
48364;BME280;34170;54.364;18.582;2023-06-22T10:22:08;100606.88;;;36.14;24.67
48364;BME280;34170;54.364;18.582;2023-06-22T10:24:36;100612.03;;;35.60;25.70
48364;BME280;34170;54.364;18.582;2023-06-22T10:27:06;100605.34;;;36.63;24.32
48364;BME280;34170;54.364;18.582;2023-06-22T10:29:34;100603.25;;;36.14;24.71
48364;BME280;34170;54.364;18.582;2023-06-22T10:32:02;100602.16;;;35.82;24.51
48364;BME280;34170;54.364;18.582;2023-06-22T10:34:30;100596.84;;;36.13;24.57
48364;BME280;34170;54.364;18.582;2023-06-22T10:36:57;100601.81;;;36.02;24.18
48364;BME280;34170;54.364;18.582;2023-06-22T10:39:25;100600.75;;;36.12;25.09
48364;BME280;34170;54.364;18.582;2023-06-22T10:41:53;100590.91;;;35.68;25.11
48364;BME280;34170;54.364;18.582;2023-06-22T10:44:21;100595.06;;;34.81;25.53
48364;BME280;34170;54.364;18.582;2023-06-22T10:46:49;100597.81;;;33.15;28.51
48364;BME280;34170;54.364;18.582;2023-06-22T10:49:16;100592.50;;;34.12;27.42
48364;BME280;34170;54.364;18.582;2023-06-22T10:51:44;100592.69;;;34.69;26.78
48364;BME280;34170;54.364;18.582;2023-06-22T10:54:12;100586.50;;;36.28;24.89
48364;BME280;34170;54.364;18.582;2023-06-22T10:56:41;100580.19;;;35.75;24.67
48364;BME280;34170;54.364;18.582;2023-06-22T10:59:08;100588.19;;;34.73;26.14
48364;BME280;34170;54.364;18.582;2023-06-22T11:01:36;100587.59;;;32.30;29.42
48364;BME280;34170;54.364;18.582;2023-06-22T11:04:04;100584.00;;;32.95;29.63
48364;BME280;34170;54.364;18.582;2023-06-22T11:06:32;100585.59;;;34.33;27.21
48364;BME280;34170;54.364;18.582;2023-06-22T11:09:00;100583.41;;;33.77;27.75
48364;BME280;34170;54.364;18.582;2023-06-22T11:11:30;100587.63;;;33.69;27.38
48364;BME280;34170;54.364;18.582;2023-06-22T11:13:58;100579.16;;;33.50;28.50
48364;BME280;34170;54.364;18.582;2023-06-22T11:16:26;100585.09;;;33.38;28.33
48364;BME280;34170;54.364;18.582;2023-06-22T11:18:54;100577.81;;;32.43;29.01
48364;BME280;34170;54.364;18.582;2023-06-22T11:21:22;100573.78;;;31.43;30.80
48364;BME280;34170;54.364;18.582;2023-06-22T11:23:50;100570.97;;;31.17;31.99
48364;BME280;34170;54.364;18.582;2023-06-22T11:26:17;100573.25;;;31.35;30.60
48364;BME280;34170;54.364;18.582;2023-06-22T11:28:46;100572.34;;;30.99;30.91
48364;BME280;34170;54.364;18.582;2023-06-22T11:31:14;100568.88;;;30.56;30.14
48364;BME280;34170;54.364;18.582;2023-06-22T11:33:53;100569.38;;;29.25;32.12
48364;BME280;34170;54.364;18.582;2023-06-22T11:36:21;100569.50;;;30.20;31.90
48364;BME280;34170;54.364;18.582;2023-06-22T11:38:49;100576.44;;;30.81;31.94
48364;BME280;34170;54.364;18.582;2023-06-22T11:41:16;100580.41;;;30.95;30.55
48364;BME280;34170;54.364;18.582;2023-06-22T11:43:44;100579.97;;;30.56;30.58
48364;BME280;34170;54.364;18.582;2023-06-22T11:46:12;100574.09;;;30.47;31.74
48364;BME280;34170;54.364;18.582;2023-06-22T11:48:40;100583.31;;;30.58;30.64
48364;BME280;34170;54.364;18.582;2023-06-22T11:51:08;100568.00;;;30.45;31.37
48364;BME280;34170;54.364;18.582;2023-06-22T11:53:36;100562.78;;;30.59;31.35
48364;BME280;34170;54.364;18.582;2023-06-22T11:56:03;100556.16;;;29.32;34.80
48364;BME280;34170;54.364;18.582;2023-06-22T11:58:31;100576.75;;;28.26;40.31
48364;BME280;34170;54.364;18.582;2023-06-22T12:00:59;100576.25;;;27.73;42.60
48364;BME280;34170;54.364;18.582;2023-06-22T12:03:27;100578.56;;;26.32;46.00
48364;BME280;34170;54.364;18.582;2023-06-22T12:05:54;100562.81;;;26.56;46.48
48364;BME280;34170;54.364;18.582;2023-06-22T12:08:22;100559.13;;;26.51;46.59
48364;BME280;34170;54.364;18.582;2023-06-22T12:10:50;100574.50;;;25.87;49.55
48364;BME280;34170;54.364;18.582;2023-06-22T12:13:18;100575.53;;;25.39;50.48
48364;BME280;34170;54.364;18.582;2023-06-22T12:15:46;100573.88;;;25.08;51.78
48364;BME280;34170;54.364;18.582;2023-06-22T12:18:14;100575.78;;;25.38;50.51
48364;BME280;34170;54.364;18.582;2023-06-22T12:20:42;100561.59;;;25.22;52.20
48364;BME280;34170;54.364;18.582;2023-06-22T12:23:10;100564.91;;;25.78;49.33
48364;BME280;34170;54.364;18.582;2023-06-22T12:25:38;100563.59;;;26.28;47.85
48364;BME280;34170;54.364;18.582;2023-06-22T12:28:05;100561.88;;;26.51;46.96
48364;BME280;34170;54.364;18.582;2023-06-22T12:30:33;100564.34;;;26.00;48.56
48364;BME280;34170;54.364;18.582;2023-06-22T12:33:01;100570.41;;;25.01;54.24
48364;BME280;34170;54.364;18.582;2023-06-22T12:35:29;100551.16;;;25.12;53.94
48364;BME280;34170;54.364;18.582;2023-06-22T12:37:57;100553.56;;;24.79;55.42
48364;BME280;34170;54.364;18.582;2023-06-22T12:40:24;100551.81;;;25.26;52.88
48364;BME280;34170;54.364;18.582;2023-06-22T12:42:52;100561.41;;;25.05;54.11
48364;BME280;34170;54.364;18.582;2023-06-22T12:45:20;100562.75;;;25.57;50.72
48364;BME280;34170;54.364;18.582;2023-06-22T12:47:49;100553.53;;;25.09;53.25
48364;BME280;34170;54.364;18.582;2023-06-22T12:50:17;100562.06;;;25.97;50.53
48364;BME280;34170;54.364;18.582;2023-06-22T12:52:45;100559.72;;;26.41;49.62
48364;BME280;34170;54.364;18.582;2023-06-22T12:55:13;100554.06;;;25.95;50.96
48364;BME280;34170;54.364;18.582;2023-06-22T12:57:41;100562.38;;;26.36;50.01
48364;BME280;34170;54.364;18.582;2023-06-22T13:00:09;100542.50;;;25.39;52.51